createdAt,value
2022-11-04T00:02:09.444Z,8.07
2022-11-04T00:07:30.768Z,8.40
2022-11-04T00:12:33.349Z,6.75
2022-11-04T00:17:35.729Z,7.30
2022-11-04T00:22:57.230Z,7.60
2022-11-04T00:28:25.618Z,6.80
2022-11-04T00:33:28.226Z,7.10
2022-11-04T00:38:30.781Z,7.03
2022-11-04T00:43:33.417Z,7.82
2022-11-04T00:48:35.951Z,7.82
2022-11-04T00:53:38.458Z,8.63
2022-11-04T00:58:41.098Z,7.80
2022-11-04T01:03:44.029Z,7.57
2022-11-04T01:08:46.649Z,8.23
2022-11-04T01:13:52.035Z,7.80
2022-11-04T01:18:54.639Z,8.02
2022-11-04T01:23:57.389Z,8.27
2022-11-04T01:29:00.468Z,8.57
2022-11-04T01:34:03.104Z,8.18
2022-11-04T01:39:06.111Z,8.45
2022-11-04T01:44:27.518Z,8.27
2022-11-04T01:49:43.585Z,8.25
2022-11-04T01:54:48.104Z,8.55
2022-11-04T01:59:50.789Z,8.63
2022-11-04T02:04:53.488Z,8.52
2022-11-04T02:09:56.342Z,7.82
2022-11-04T02:14:59.239Z,9.15
2022-11-04T02:20:01.689Z,8.55
2022-11-04T02:25:04.301Z,9.05
2022-11-04T02:30:14.894Z,8.20
2022-11-04T02:35:35.218Z,9.57
2022-11-04T02:40:47.531Z,10.07
2022-11-04T02:45:58.202Z,10.18
2022-11-04T02:51:00.586Z,9.80
2022-11-04T02:56:04.522Z,12.82
2022-11-04T03:01:08.173Z,11.38
2022-11-04T03:06:12.208Z,10.95
2022-11-04T03:11:16.561Z,11.38
2022-11-04T03:16:28.917Z,10.50
2022-11-04T03:21:33.155Z,12.30
2022-11-04T03:26:41.168Z,10.95
2022-11-04T03:31:46.544Z,13.13
2022-11-04T03:36:49.125Z,12.88
2022-11-04T03:41:54.494Z,10.45
2022-11-04T03:46:58.036Z,9.85
2022-11-04T03:52:00.849Z,17.83
2022-11-04T03:57:14.072Z,10.25
2022-11-04T04:02:22.823Z,13.30
2022-11-04T04:07:30.519Z,12.85
2022-11-04T04:12:36.361Z,10.10
2022-11-04T04:17:50.594Z,11.10
2022-11-04T04:22:55.805Z,10.73
2022-11-04T04:27:59.109Z,10.93
2022-11-04T04:33:05.106Z,13.88
2022-11-04T04:38:28.120Z,11.00
2022-11-04T04:43:49.532Z,10.05
2022-11-04T04:48:52.042Z,12.15
2022-11-04T04:53:54.532Z,10.13
2022-11-04T04:58:57.161Z,11.57
2022-11-04T05:03:59.810Z,10.90
2022-11-04T05:09:02.340Z,11.98
2022-11-04T05:14:04.895Z,11.43
2022-11-04T05:19:07.624Z,11.48
2022-11-04T05:24:10.688Z,11.60
2022-11-04T05:34:35.915Z,10.20
2022-11-04T05:39:38.414Z,10.52
2022-11-04T05:44:40.937Z,9.95
2022-11-04T05:49:43.481Z,11.27
2022-11-04T05:54:46.098Z,10.60
2022-11-04T05:59:48.639Z,10.85
2022-11-04T06:04:51.168Z,10.63
2022-11-04T06:09:53.769Z,11.40
2022-11-04T06:14:59.429Z,10.35
2022-11-04T06:20:02.456Z,10.73
2022-11-04T06:25:05.051Z,10.00
2022-11-04T06:30:17.082Z,9.48
2022-11-04T06:35:19.739Z,10.60
2022-11-04T06:40:22.338Z,10.70
2022-11-04T06:45:24.888Z,10.05
2022-11-04T06:50:27.418Z,9.88
2022-11-04T06:55:30.150Z,9.95
2022-11-04T07:00:32.760Z,10.13
2022-11-04T07:05:35.452Z,10.13
2022-11-04T07:10:38.005Z,12.60
2022-11-04T07:15:40.704Z,10.65
2022-11-04T07:20:43.207Z,10.15
2022-11-04T07:25:45.654Z,10.63
2022-11-04T07:30:48.111Z,11.77
2022-11-04T07:35:54.088Z,11.43
2022-11-04T07:40:59.750Z,11.63
2022-11-04T07:46:12.306Z,13.63
2022-11-04T07:56:20.221Z,12.68
2022-11-04T08:01:23.944Z,16.67
2022-11-04T08:06:27.507Z,12.07
2022-11-04T08:11:30.361Z,11.52
2022-11-04T08:16:34.461Z,15.00
2022-11-04T08:21:37.950Z,11.57
2022-11-04T08:26:40.497Z,11.20
2022-11-04T08:31:43.611Z,12.55
2022-11-04T08:36:46.688Z,12.63
2022-11-04T08:41:52.269Z,13.43
2022-11-04T08:46:56.313Z,12.90
2022-11-04T08:52:00.847Z,13.93
2022-11-04T08:57:03.454Z,13.90
2022-11-04T09:02:06.460Z,13.73
2022-11-04T09:07:12.378Z,18.90
2022-11-04T09:12:15.333Z,14.02
2022-11-04T09:17:17.915Z,13.45
2022-11-04T09:22:20.761Z,12.10
2022-11-04T09:27:23.242Z,9.95
2022-11-04T09:32:26.041Z,9.48
2022-11-04T09:37:28.702Z,8.57
2022-11-04T09:42:42.855Z,8.50
2022-11-04T09:47:48.333Z,7.50
2022-11-04T09:52:54.305Z,7.63
2022-11-04T09:58:00.866Z,7.43
2022-11-04T10:03:12.879Z,7.10
2022-11-04T10:08:36.710Z,6.80
2022-11-04T10:13:43.448Z,7.07
2022-11-04T10:19:04.088Z,7.03
2022-11-04T10:24:16.603Z,19.02
2022-11-04T10:29:34.173Z,7.50
2022-11-04T10:34:53.415Z,10.07
2022-11-04T10:40:00.740Z,12.02
2022-11-04T10:45:03.235Z,13.73
2022-11-04T10:50:36.254Z,16.65
2022-11-04T10:55:35.932Z,37.17
2022-11-04T11:00:40.363Z,7.25
2022-11-04T11:05:43.062Z,17.75
2022-11-04T11:10:52.484Z,9.38
2022-11-04T11:16:09.558Z,11.43
2022-11-04T11:21:18.707Z,8.70
2022-11-04T11:26:22.299Z,9.55
2022-11-04T11:31:27.426Z,8.10
2022-11-04T11:36:31.633Z,7.10
2022-11-04T11:41:40.948Z,7.93
2022-11-04T11:46:51.133Z,8.27
2022-11-04T11:51:53.697Z,8.75
2022-11-04T11:57:12.665Z,8.77
2022-11-04T12:02:23.115Z,8.18
2022-11-04T12:12:56.171Z,9.68
2022-11-04T12:18:02.144Z,10.23
2022-11-04T12:23:20.502Z,10.48
2022-11-04T12:28:32.589Z,11.10
2022-11-04T12:33:51.392Z,11.55
2022-11-04T12:39:06.887Z,11.13
2022-11-04T12:44:28.096Z,11.73
2022-11-04T12:49:37.027Z,11.00
2022-11-04T12:54:58.296Z,11.40
2022-11-04T13:00:10.331Z,10.50
2022-11-04T13:05:21.997Z,11.05
2022-11-04T13:10:34.498Z,11.37
2022-11-04T13:15:48.754Z,10.73
2022-11-04T13:21:00.733Z,14.00
2022-11-04T13:26:06.874Z,14.30
2022-11-04T13:31:27.534Z,11.77
2022-11-04T13:36:41.255Z,12.45
2022-11-04T13:41:50.279Z,13.05
2022-11-04T13:46:54.806Z,16.58
2022-11-04T13:52:07.137Z,10.85
2022-11-04T13:57:12.638Z,12.20
2022-11-04T14:02:21.369Z,11.45
2022-11-04T14:07:44.447Z,10.73
2022-11-04T14:12:47.294Z,11.40
2022-11-04T14:17:49.775Z,11.13
2022-11-04T14:22:56.706Z,13.20
2022-11-04T14:28:00.720Z,18.38
2022-11-04T14:33:05.523Z,12.27
2022-11-04T14:38:18.134Z,11.45
2022-11-04T14:43:31.656Z,12.32
2022-11-04T14:48:35.013Z,12.52
2022-11-04T14:53:38.083Z,12.27
2022-11-04T14:58:51.755Z,14.20
2022-11-04T15:04:12.758Z,14.40
2022-11-04T15:09:42.765Z,13.98
2022-11-04T15:14:45.413Z,13.73
2022-11-04T15:19:49.925Z,13.38
2022-11-04T15:24:53.405Z,13.13
2022-11-04T15:30:01.018Z,13.10
2022-11-04T15:35:03.806Z,15.07
2022-11-04T15:40:06.908Z,14.15
2022-11-04T15:45:25.093Z,14.18
2022-11-04T15:50:35.775Z,14.45
2022-11-04T15:55:46.070Z,14.90
2022-11-04T16:00:53.500Z,16.40
2022-11-04T16:06:06.741Z,28.48
2022-11-04T16:11:23.010Z,16.63
2022-11-04T16:16:28.854Z,15.15
2022-11-04T16:21:36.209Z,14.88
2022-11-04T16:26:40.542Z,12.70
2022-11-04T16:31:43.506Z,18.17
2022-11-04T16:36:46.086Z,19.95
2022-11-04T16:41:48.575Z,15.48
2022-11-04T16:46:51.723Z,14.23
2022-11-04T16:51:56.022Z,13.43
2022-11-04T16:56:59.437Z,13.20
2022-11-04T17:02:21.360Z,12.70
2022-11-04T17:07:40.570Z,12.40
2022-11-04T17:12:50.284Z,12.43
2022-11-04T17:17:52.843Z,12.57
2022-11-04T17:22:55.556Z,13.18
2022-11-04T17:27:58.131Z,12.52
2022-11-04T17:33:01.247Z,12.70
2022-11-04T17:38:04.282Z,12.27
2022-11-04T17:43:26.893Z,21.00
2022-11-04T17:48:29.591Z,13.27
2022-11-04T17:53:32.126Z,12.32
2022-11-04T17:58:34.648Z,12.55
2022-11-04T18:03:37.348Z,12.05
2022-11-04T18:08:40.242Z,12.05
2022-11-04T18:13:42.757Z,11.48
2022-11-04T18:18:45.486Z,12.88
2022-11-04T18:23:48.178Z,11.85
2022-11-04T18:28:50.811Z,12.52
2022-11-04T18:33:53.594Z,12.20
2022-11-04T18:38:56.713Z,12.40
2022-11-04T18:44:00.508Z,13.30
2022-11-04T18:49:03.208Z,13.13
2022-11-04T18:54:06.502Z,13.93
2022-11-04T18:59:10.070Z,14.63
2022-11-04T19:04:13.474Z,14.48
2022-11-04T19:14:40.347Z,15.68
2022-11-04T19:19:43.138Z,15.95
2022-11-04T19:24:46.294Z,15.98
2022-11-04T19:29:48.922Z,16.65
2022-11-04T19:34:51.532Z,16.58
2022-11-04T19:39:54.118Z,16.10
2022-11-04T19:44:56.852Z,14.18
2022-11-04T19:49:59.631Z,15.77
2022-11-04T19:55:02.246Z,15.80
2022-11-04T20:00:05.272Z,15.73
2022-11-04T20:05:14.158Z,15.52
2022-11-04T20:10:16.940Z,16.27
2022-11-04T20:15:19.919Z,16.50
2022-11-04T20:20:22.541Z,15.68
2022-11-04T20:25:25.443Z,16.17
2022-11-04T20:30:30.466Z,16.75
2022-11-04T20:35:34.335Z,17.23
2022-11-04T20:40:37.052Z,18.23
2022-11-04T20:45:39.729Z,16.92
2022-11-04T20:50:42.407Z,18.40
2022-11-04T20:55:45.043Z,18.38
2022-11-04T21:00:48.054Z,16.95
2022-11-04T21:05:50.722Z,16.73
2022-11-04T21:10:54.525Z,16.55
2022-11-04T21:15:58.119Z,16.80
2022-11-04T21:21:07.140Z,16.85
2022-11-04T21:26:12.314Z,17.17
2022-11-04T21:31:15.187Z,16.00
2022-11-04T21:36:17.854Z,16.15
2022-11-04T21:41:23.402Z,15.43
2022-11-04T21:46:26.660Z,14.82
2022-11-04T21:51:30.800Z,15.82
2022-11-04T21:56:33.543Z,15.07
2022-11-04T22:01:36.293Z,15.00
2022-11-04T22:06:39.081Z,15.88
2022-11-04T22:11:41.850Z,15.07
2022-11-04T22:16:44.467Z,15.02
2022-11-04T22:21:47.255Z,13.85
2022-11-04T22:26:50.401Z,14.68
2022-11-04T22:31:53.069Z,14.55
2022-11-04T22:36:55.701Z,16.02
2022-11-04T22:41:58.117Z,17.35
2022-11-04T22:47:00.659Z,15.75
2022-11-04T22:52:03.656Z,16.95
2022-11-04T22:57:06.078Z,16.80
2022-11-04T23:02:08.749Z,16.75
2022-11-04T23:07:11.742Z,17.52
2022-11-04T23:12:32.684Z,18.00
2022-11-04T23:17:54.105Z,17.17
2022-11-04T23:23:15.033Z,16.75
2022-11-04T23:28:36.050Z,17.13
2022-11-04T23:33:57.156Z,17.40
2022-11-04T23:38:59.535Z,17.45
2022-11-04T23:44:02.146Z,17.30
2022-11-04T23:49:23.422Z,18.52
2022-11-04T23:54:44.435Z,19.45
